createdAt,value
2022-10-02T00:01:57.582Z,4.17
2022-10-02T00:04:33.585Z,8.53
2022-10-02T00:07:06.873Z,6.43
2022-10-02T00:09:41.529Z,7.93
2022-10-02T00:12:12.813Z,6.17
2022-10-02T00:14:43.687Z,10.67
2022-10-02T00:17:19.705Z,7.70
2022-10-02T00:19:47.983Z,4.40
2022-10-02T00:22:31.245Z,6.70
2022-10-02T00:25:05.155Z,4.67
2022-10-02T00:27:55.472Z,4.80
2022-10-02T00:30:24.052Z,7.17
2022-10-02T00:33:05.167Z,4.95
2022-10-02T00:35:56.748Z,14.30
2022-10-02T00:38:36.846Z,2.93
2022-10-02T00:41:20.354Z,3.83
2022-10-02T00:43:59.734Z,7.57
2022-10-02T00:46:39.991Z,5.23
2022-10-02T00:49:43.013Z,7.23
2022-10-02T00:52:30.473Z,7.27
2022-10-02T00:55:20.782Z,3.67
2022-10-02T00:58:04.303Z,5.07
2022-10-02T01:00:32.965Z,5.40
2022-10-02T01:03:11.992Z,8.43
2022-10-02T01:05:41.626Z,8.43
2022-10-02T01:08:10.225Z,5.67
2022-10-02T01:10:39.348Z,4.60
2022-10-02T01:13:08.429Z,7.47
2022-10-02T01:15:39.303Z,6.73
2022-10-02T01:18:08.840Z,6.03
2022-10-02T01:20:39.622Z,3.87
2022-10-02T01:23:21.053Z,9.00
2022-10-02T01:25:50.864Z,7.17
2022-10-02T01:28:19.697Z,5.50
2022-10-02T01:30:51.524Z,7.37
2022-10-02T01:33:20.639Z,8.30
2022-10-02T01:35:49.990Z,7.80
2022-10-02T01:38:23.178Z,5.70
2022-10-02T01:40:53.051Z,9.30
2022-10-02T01:43:24.913Z,10.77
2022-10-02T01:45:59.507Z,8.80
2022-10-02T01:48:43.287Z,8.93
2022-10-02T01:51:40.201Z,9.37
2022-10-02T01:54:20.137Z,9.57
2022-10-02T01:56:58.026Z,12.10
2022-10-02T01:59:38.964Z,8.67
2022-10-02T02:02:17.511Z,8.70
2022-10-02T02:04:56.450Z,7.90
2022-10-02T02:07:35.525Z,14.07
2022-10-02T02:10:14.609Z,8.70
2022-10-02T02:12:48.422Z,14.27
2022-10-02T02:15:24.012Z,13.13
2022-10-02T02:17:58.093Z,9.63
2022-10-02T02:20:31.703Z,8.70
2022-10-02T02:23:06.060Z,11.57
2022-10-02T02:25:37.971Z,11.02
2022-10-02T02:28:12.584Z,11.07
2022-10-02T02:30:45.459Z,14.30
2022-10-02T02:33:18.456Z,8.88
2022-10-02T02:35:49.741Z,11.43
2022-10-02T02:38:23.217Z,11.98
2022-10-02T02:40:52.542Z,13.77
2022-10-02T02:43:28.562Z,11.90
2022-10-02T02:45:59.149Z,9.53
2022-10-02T02:48:30.893Z,9.63
2022-10-02T02:51:03.349Z,9.35
2022-10-02T02:53:36.899Z,11.10
2022-10-02T02:56:09.635Z,7.80
2022-10-02T02:58:43.722Z,10.70
2022-10-02T03:01:12.340Z,9.95
2022-10-02T03:03:40.595Z,7.82
2022-10-02T03:06:32.006Z,11.13
2022-10-02T03:09:02.647Z,9.32
2022-10-02T03:11:47.633Z,7.40
2022-10-02T03:14:44.112Z,11.98
2022-10-02T03:17:26.810Z,11.52
2022-10-02T03:20:01.963Z,6.83
2022-10-02T03:22:41.933Z,6.93
2022-10-02T03:25:15.530Z,6.47
2022-10-02T03:27:49.286Z,10.63
2022-10-02T03:30:21.974Z,7.07
2022-10-02T03:32:53.679Z,7.53
2022-10-02T03:35:23.940Z,7.40
2022-10-02T03:37:55.044Z,7.87
2022-10-02T03:40:25.171Z,6.47
2022-10-02T03:42:58.224Z,7.30
2022-10-02T03:45:49.866Z,7.43
2022-10-02T03:48:17.941Z,8.00
2022-10-02T03:50:46.630Z,5.50
2022-10-02T03:53:16.794Z,5.03
2022-10-02T03:55:49.546Z,6.77
2022-10-02T03:58:19.208Z,4.77
2022-10-02T04:00:55.741Z,4.90
2022-10-02T04:03:29.044Z,7.97
2022-10-02T04:06:05.040Z,5.63
2022-10-02T04:08:38.094Z,5.07
2022-10-02T04:11:11.578Z,6.40
2022-10-02T04:13:42.958Z,5.23
2022-10-02T04:16:17.840Z,7.00
2022-10-02T04:18:53.634Z,7.60
2022-10-02T04:21:34.327Z,5.87
2022-10-02T04:24:11.735Z,5.03
2022-10-02T04:26:48.774Z,5.47
2022-10-02T04:29:21.297Z,8.33
2022-10-02T04:31:55.792Z,6.93
2022-10-02T04:34:24.081Z,7.83
2022-10-02T04:37:12.295Z,6.60
2022-10-02T04:39:59.718Z,6.40
2022-10-02T04:42:47.855Z,6.43
2022-10-02T04:45:34.925Z,5.93
2022-10-02T04:48:38.224Z,6.40
2022-10-02T04:51:18.909Z,5.30
2022-10-02T04:54:01.435Z,6.90
2022-10-02T04:56:53.647Z,8.97
2022-10-02T04:59:36.065Z,10.10
2022-10-02T05:02:21.422Z,6.93
2022-10-02T05:05:05.901Z,7.47
2022-10-02T05:07:49.109Z,6.63
2022-10-02T05:10:43.210Z,5.57
2022-10-02T05:13:28.321Z,7.80
2022-10-02T05:16:22.605Z,4.67
2022-10-02T05:19:15.534Z,5.67
2022-10-02T05:22:07.648Z,6.40
2022-10-02T05:24:47.839Z,6.17
2022-10-02T05:27:52.527Z,4.23
2022-10-02T05:30:21.744Z,4.90
2022-10-02T05:33:10.725Z,4.97
2022-10-02T05:35:57.849Z,6.50
2022-10-02T05:39:02.193Z,9.57
2022-10-02T05:41:40.976Z,6.47
2022-10-02T05:44:15.665Z,7.53
2022-10-02T05:46:48.083Z,5.33
2022-10-02T05:49:19.707Z,4.50
2022-10-02T05:51:55.762Z,5.10
2022-10-02T05:54:42.847Z,6.43
2022-10-02T05:57:17.953Z,5.17
2022-10-02T05:59:57.322Z,6.20
2022-10-02T06:02:29.314Z,5.73
2022-10-02T06:05:04.689Z,5.60
2022-10-02T06:07:33.870Z,2.63
2022-10-02T06:10:10.924Z,7.17
2022-10-02T06:12:46.706Z,5.03
2022-10-02T06:15:23.810Z,5.93
2022-10-02T06:17:57.207Z,3.23
2022-10-02T06:20:29.307Z,3.53
2022-10-02T06:23:02.989Z,2.73
2022-10-02T06:25:37.003Z,3.13
2022-10-02T06:28:15.879Z,4.23
2022-10-02T06:30:48.756Z,2.60
2022-10-02T06:33:22.223Z,3.20
2022-10-02T06:36:21.506Z,7.83
2022-10-02T06:39:08.954Z,4.97
2022-10-02T06:41:47.438Z,2.70
2022-10-02T06:44:24.564Z,4.07
2022-10-02T06:47:11.304Z,2.92
2022-10-02T06:49:56.755Z,2.25
2022-10-02T06:52:38.353Z,4.85
2022-10-02T06:55:26.713Z,3.28
2022-10-02T06:58:11.593Z,5.57
2022-10-02T07:00:49.341Z,4.80
2022-10-02T07:03:49.604Z,3.17
2022-10-02T07:06:26.139Z,2.33
2022-10-02T07:09:15.844Z,2.47
2022-10-02T07:11:54.027Z,4.60
2022-10-02T07:14:47.070Z,3.40
2022-10-02T07:17:30.537Z,2.80
2022-10-02T07:20:17.722Z,4.13
2022-10-02T07:23:00.887Z,6.35
2022-10-02T07:25:43.573Z,2.13
2022-10-02T07:28:18.964Z,1.63
2022-10-02T07:31:05.248Z,4.40
2022-10-02T07:33:48.757Z,3.58
2022-10-02T07:36:24.613Z,6.45
2022-10-02T07:39:04.169Z,1.25
2022-10-02T07:41:56.795Z,2.88
2022-10-02T07:44:41.731Z,1.55
2022-10-02T07:47:26.118Z,5.82
2022-10-02T07:50:00.680Z,1.33
2022-10-02T07:52:39.524Z,1.73
2022-10-02T07:55:18.527Z,2.63
2022-10-02T07:57:56.207Z,3.17
2022-10-02T08:00:26.391Z,3.55
2022-10-02T08:03:02.924Z,1.77
2022-10-02T08:05:37.589Z,1.45
2022-10-02T08:08:12.451Z,1.60
2022-10-02T08:10:44.484Z,5.30
2022-10-02T08:13:20.579Z,4.10
2022-10-02T08:15:54.402Z,2.88
2022-10-02T08:18:35.621Z,1.40
2022-10-02T08:21:06.612Z,2.08
2022-10-02T08:23:40.508Z,4.22
2022-10-02T08:26:17.779Z,7.25
2022-10-02T08:28:52.677Z,1.25
2022-10-02T08:31:21.438Z,1.00
2022-10-02T08:33:52.037Z,0.73
2022-10-02T08:36:36.199Z,0.82
2022-10-02T08:39:16.731Z,7.88
2022-10-02T08:42:09.698Z,0.55
2022-10-02T08:45:03.594Z,1.77
2022-10-02T08:48:12.944Z,0.63
2022-10-02T08:51:18.981Z,3.95
2022-10-02T08:54:32.501Z,0.47
2022-10-02T08:57:18.742Z,2.20
2022-10-02T09:00:09.911Z,2.88
2022-10-02T09:03:11.363Z,0.93
2022-10-02T09:06:15.153Z,4.32
2022-10-02T09:09:13.548Z,1.30
2022-10-02T09:12:00.522Z,4.07
2022-10-02T09:14:48.380Z,0.70
2022-10-02T09:17:43.916Z,2.28
2022-10-02T09:20:51.541Z,1.23
2022-10-02T09:24:11.293Z,2.50
2022-10-02T09:27:24.753Z,0.70
2022-10-02T09:30:22.328Z,4.38
2022-10-02T09:33:33.103Z,0.40
2022-10-02T09:36:35.611Z,1.48
2022-10-02T09:39:41.922Z,2.38
2022-10-02T09:42:30.797Z,0.63
2022-10-02T09:45:32.582Z,2.63
2022-10-02T09:48:34.705Z,1.70
2022-10-02T09:51:43.265Z,0.60
2022-10-02T09:54:43.165Z,2.60
2022-10-02T09:57:57.133Z,2.88
2022-10-02T10:00:40.124Z,7.57
2022-10-02T10:03:49.063Z,5.30
2022-10-02T10:06:43.419Z,16.45
2022-10-02T10:09:47.389Z,1.17
2022-10-02T10:12:49.637Z,17.45
2022-10-02T10:15:47.636Z,12.45
2022-10-02T10:18:47.926Z,1.67
2022-10-02T10:21:49.825Z,1.95
2022-10-02T10:25:11.936Z,3.05
2022-10-02T10:28:07.590Z,2.13
2022-10-02T10:31:10.175Z,1.45
2022-10-02T10:34:10.241Z,0.98
2022-10-02T10:37:14.907Z,1.42
2022-10-02T10:40:16.319Z,1.13
2022-10-02T10:43:14.319Z,2.15
2022-10-02T10:45:57.167Z,1.40
2022-10-02T10:48:35.752Z,1.42
2022-10-02T10:51:31.703Z,0.82
2022-10-02T10:54:32.132Z,2.17
2022-10-02T10:57:07.093Z,2.92
2022-10-02T11:00:02.362Z,1.58
2022-10-02T11:03:08.769Z,1.27
2022-10-02T11:06:26.468Z,1.98
2022-10-02T11:09:27.722Z,2.10
2022-10-02T11:12:28.244Z,1.02
2022-10-02T11:15:24.311Z,1.52
2022-10-02T11:18:10.338Z,1.20
2022-10-02T11:21:04.432Z,0.70
2022-10-02T11:24:07.773Z,2.45
2022-10-02T11:27:15.081Z,1.20
2022-10-02T11:30:17.128Z,7.03
2022-10-02T11:33:19.273Z,0.28
2022-10-02T11:36:17.208Z,0.43
2022-10-02T11:39:39.181Z,0.73
2022-10-02T11:42:38.404Z,0.55
2022-10-02T11:45:43.829Z,1.00
2022-10-02T11:48:54.152Z,4.38
2022-10-02T11:51:46.403Z,0.90
2022-10-02T11:54:38.271Z,0.90
2022-10-02T11:57:25.445Z,0.95
2022-10-02T12:00:12.594Z,0.50
2022-10-02T12:02:51.307Z,1.10
2022-10-02T12:05:36.320Z,2.60
2022-10-02T12:08:17.535Z,2.78
2022-10-02T12:10:56.128Z,1.48
2022-10-02T12:13:49.417Z,0.93
2022-10-02T12:16:28.117Z,1.00
2022-10-02T12:19:11.733Z,1.52
2022-10-02T12:22:12.293Z,0.30
2022-10-02T12:25:05.702Z,0.75
2022-10-02T12:27:51.006Z,0.70
2022-10-02T12:30:23.536Z,0.50
2022-10-02T12:33:04.149Z,1.65
2022-10-02T12:35:50.487Z,1.65
2022-10-02T12:38:35.233Z,0.90
2022-10-02T12:41:13.353Z,0.98
2022-10-02T12:44:07.477Z,0.73
2022-10-02T12:47:00.418Z,4.35
2022-10-02T12:49:40.006Z,3.72
2022-10-02T12:52:43.391Z,1.13
2022-10-02T12:55:56.543Z,0.88
2022-10-02T12:58:33.431Z,4.13
2022-10-02T13:01:37.406Z,4.75
2022-10-02T13:04:45.214Z,2.30
2022-10-02T13:07:46.775Z,0.98
2022-10-02T13:10:20.401Z,2.75
2022-10-02T13:13:02.384Z,2.55
2022-10-02T13:15:40.697Z,1.30
2022-10-02T13:18:30.653Z,0.70
2022-10-02T13:21:11.464Z,1.40
2022-10-02T13:23:49.250Z,0.47
2022-10-02T13:26:25.186Z,4.60
2022-10-02T13:29:30.335Z,3.15
2022-10-02T13:32:15.894Z,1.88
2022-10-02T13:35:12.338Z,0.52
2022-10-02T13:38:29.799Z,1.88
2022-10-02T13:41:13.394Z,0.50
2022-10-02T13:43:58.930Z,0.50
2022-10-02T13:46:54.386Z,0.30
2022-10-02T13:49:33.360Z,0.65
2022-10-02T13:52:15.093Z,0.57
2022-10-02T13:55:19.580Z,0.30
2022-10-02T13:58:37.317Z,0.43
2022-10-02T14:01:21.500Z,1.23
2022-10-02T14:04:16.251Z,1.20
2022-10-02T14:06:49.287Z,0.88
2022-10-02T14:09:37.251Z,1.13
2022-10-02T14:12:30.742Z,0.75
2022-10-02T14:15:21.087Z,1.15
2022-10-02T14:18:19.844Z,1.13
2022-10-02T14:20:55.384Z,0.65
2022-10-02T14:23:46.952Z,0.30
2022-10-02T14:26:24.186Z,1.98
2022-10-02T14:29:12.596Z,0.82
2022-10-02T14:32:12.696Z,3.33
2022-10-02T14:35:12.122Z,0.40
2022-10-02T14:38:26.838Z,1.30
2022-10-02T14:40:59.397Z,0.63
2022-10-02T14:44:00.360Z,0.80
2022-10-02T14:46:54.706Z,0.45
2022-10-02T14:49:40.185Z,2.78
2022-10-02T14:52:39.772Z,0.47
2022-10-02T14:55:28.630Z,1.63
2022-10-02T14:58:12.987Z,7.32
2022-10-02T15:00:52.865Z,2.88
2022-10-02T15:03:45.475Z,4.65
2022-10-02T15:06:27.103Z,4.50
2022-10-02T15:09:00.983Z,0.63
2022-10-02T15:11:53.026Z,7.28
2022-10-02T15:14:27.527Z,8.05
2022-10-02T15:17:18.654Z,2.13
2022-10-02T15:19:51.323Z,1.10
2022-10-02T15:22:23.285Z,0.93
2022-10-02T15:24:57.379Z,0.50
2022-10-02T15:27:27.837Z,2.10
2022-10-02T15:30:13.039Z,1.63
2022-10-02T15:32:53.337Z,0.75
2022-10-02T15:35:32.364Z,1.08
2022-10-02T15:38:33.742Z,1.13
2022-10-02T15:41:32.978Z,1.38
2022-10-02T15:44:09.643Z,1.13
2022-10-02T15:46:54.153Z,2.10
2022-10-02T15:49:37.534Z,2.67
2022-10-02T15:52:16.854Z,3.60
2022-10-02T15:54:57.889Z,4.05
2022-10-02T15:57:45.026Z,3.40
2022-10-02T16:00:16.321Z,1.40
2022-10-02T16:03:13.785Z,1.38
2022-10-02T16:05:52.503Z,2.70
2022-10-02T16:08:46.941Z,1.98
2022-10-02T16:11:48.181Z,1.70
2022-10-02T16:14:22.598Z,2.50
2022-10-02T16:17:15.059Z,3.45
2022-10-02T16:20:05.169Z,2.92
2022-10-02T16:22:53.586Z,2.40
2022-10-02T16:25:38.940Z,2.88
2022-10-02T16:28:19.880Z,1.67
2022-10-02T16:31:13.001Z,1.30
2022-10-02T16:33:51.120Z,2.05
2022-10-02T16:36:32.045Z,1.33
2022-10-02T16:39:33.818Z,9.40
2022-10-02T16:42:13.346Z,7.65
2022-10-02T16:44:54.709Z,3.15
2022-10-02T16:47:29.911Z,3.15
2022-10-02T16:50:03.891Z,1.02
2022-10-02T16:52:40.030Z,6.13
2022-10-02T16:55:20.199Z,1.60
2022-10-02T16:58:01.332Z,1.45
2022-10-02T17:00:34.864Z,2.08
2022-10-02T17:03:10.213Z,1.65
2022-10-02T17:05:47.824Z,1.17
2022-10-02T17:08:23.984Z,1.05
2022-10-02T17:11:06.409Z,1.33
2022-10-02T17:13:48.170Z,0.73
2022-10-02T17:16:21.519Z,3.08
2022-10-02T17:18:55.856Z,1.00
2022-10-02T17:21:30.576Z,2.33
2022-10-02T17:24:33.973Z,2.03
2022-10-02T17:27:15.544Z,1.75
2022-10-02T17:29:58.937Z,1.50
2022-10-02T17:32:49.864Z,1.00
2022-10-02T17:35:28.937Z,1.08
2022-10-02T17:38:35.116Z,1.50
2022-10-02T17:41:26.870Z,1.40
2022-10-02T17:44:04.444Z,1.83
2022-10-02T17:47:03.817Z,1.95
2022-10-02T17:49:41.350Z,2.58
2022-10-02T17:52:40.175Z,2.45
2022-10-02T17:55:46.568Z,2.10
2022-10-02T17:58:23.371Z,1.90
2022-10-02T18:01:06.023Z,1.98
2022-10-02T18:03:51.627Z,2.15
2022-10-02T18:06:26.726Z,2.80
2022-10-02T18:09:36.982Z,5.28
2022-10-02T18:12:27.528Z,3.07
2022-10-02T18:15:24.783Z,3.57
2022-10-02T18:18:08.231Z,4.28
2022-10-02T18:20:50.227Z,5.03
2022-10-02T18:23:32.862Z,3.67
2022-10-02T18:26:18.940Z,2.70
2022-10-02T18:29:15.073Z,2.10
2022-10-02T18:32:09.513Z,3.63
2022-10-02T18:35:05.809Z,2.40
2022-10-02T18:38:07.872Z,2.67
2022-10-02T18:40:57.631Z,2.73
2022-10-02T18:43:47.729Z,2.67
2022-10-02T18:46:26.352Z,1.87
2022-10-02T18:49:15.308Z,2.57
2022-10-02T18:52:28.197Z,2.90
2022-10-02T18:55:16.923Z,2.53
2022-10-02T18:57:59.232Z,1.43
2022-10-02T19:00:41.165Z,2.53
2022-10-02T19:03:27.103Z,1.93
2022-10-02T19:05:59.883Z,4.50
2022-10-02T19:08:54.833Z,2.93
2022-10-02T19:11:29.214Z,3.90
2022-10-02T19:14:03.385Z,1.73
2022-10-02T19:16:31.790Z,6.10
2022-10-02T19:19:23.626Z,2.17
2022-10-02T19:21:58.423Z,2.13
2022-10-02T19:24:31.651Z,3.60
2022-10-02T19:27:05.947Z,5.20
2022-10-02T19:29:38.847Z,2.70
2022-10-02T19:32:14.803Z,4.53
2022-10-02T19:34:44.137Z,5.53
2022-10-02T19:37:19.311Z,5.90
2022-10-02T19:39:57.476Z,5.03
2022-10-02T19:42:29.897Z,4.03
2022-10-02T19:45:03.034Z,3.33
2022-10-02T19:47:34.606Z,5.77
2022-10-02T19:50:05.244Z,6.70
2022-10-02T19:52:43.645Z,3.60
2022-10-02T19:55:25.046Z,3.30
2022-10-02T19:57:58.930Z,3.67
2022-10-02T20:00:28.160Z,9.07
2022-10-02T20:02:59.831Z,3.83
2022-10-02T20:05:30.398Z,8.00
2022-10-02T20:08:06.668Z,5.10
2022-10-02T20:10:39.099Z,5.70
2022-10-02T20:13:17.173Z,10.27
2022-10-02T20:16:07.165Z,7.37
2022-10-02T20:18:36.257Z,5.70
2022-10-02T20:21:08.919Z,6.70
2022-10-02T20:23:41.226Z,7.87
2022-10-02T20:26:15.000Z,4.40
2022-10-02T20:28:49.049Z,8.07
2022-10-02T20:31:21.541Z,4.97
2022-10-02T20:33:54.512Z,4.57
2022-10-02T20:36:28.057Z,4.53
2022-10-02T20:39:00.980Z,2.80
2022-10-02T20:41:33.921Z,4.33
2022-10-02T20:44:06.303Z,1.70
2022-10-02T20:47:13.732Z,3.72
2022-10-02T20:50:36.002Z,1.97
2022-10-02T20:53:33.850Z,2.43
2022-10-02T20:56:12.827Z,4.10
2022-10-02T20:59:17.365Z,3.10
2022-10-02T21:02:03.322Z,2.40
2022-10-02T21:04:58.930Z,2.10
2022-10-02T21:07:59.470Z,3.17
2022-10-02T21:11:08.151Z,5.03
2022-10-02T21:14:14.540Z,5.20
2022-10-02T21:17:23.089Z,3.00
2022-10-02T21:20:46.261Z,2.77
2022-10-02T21:23:40.770Z,4.57
2022-10-02T21:26:46.001Z,3.57
2022-10-02T21:29:26.174Z,6.10
2022-10-02T21:32:31.074Z,5.87
2022-10-02T21:35:13.227Z,2.57
2022-10-02T21:37:54.774Z,4.70
2022-10-02T21:40:58.018Z,5.97
2022-10-02T21:44:07.142Z,2.60
2022-10-02T21:47:21.201Z,1.50
2022-10-02T21:50:31.599Z,1.80
2022-10-02T21:53:47.647Z,1.63
2022-10-02T21:56:52.622Z,3.03
2022-10-02T21:59:53.744Z,3.50
2022-10-02T22:02:59.216Z,5.90
2022-10-02T22:06:09.058Z,5.20
2022-10-02T22:08:57.444Z,6.57
2022-10-02T22:11:37.987Z,4.87
2022-10-02T22:14:11.630Z,5.80
2022-10-02T22:16:51.675Z,3.23
2022-10-02T22:19:58.005Z,3.47
2022-10-02T22:22:41.823Z,4.20
2022-10-02T22:25:24.817Z,3.13
2022-10-02T22:28:18.584Z,4.70
2022-10-02T22:31:10.376Z,3.60
2022-10-02T22:33:54.300Z,4.43
2022-10-02T22:36:36.031Z,2.93
2022-10-02T22:39:10.828Z,4.43
2022-10-02T22:41:46.599Z,4.87
2022-10-02T22:44:28.401Z,2.37
2022-10-02T22:47:03.170Z,3.43
2022-10-02T22:49:39.060Z,4.27
2022-10-02T22:52:12.823Z,2.03
2022-10-02T22:54:46.510Z,3.17
2022-10-02T22:57:30.414Z,3.07
2022-10-02T23:00:02.847Z,4.10
2022-10-02T23:02:36.204Z,4.27
2022-10-02T23:05:10.955Z,3.00
2022-10-02T23:07:46.351Z,3.67
2022-10-02T23:10:25.852Z,2.47
2022-10-02T23:13:04.008Z,4.83
2022-10-02T23:15:42.008Z,2.27
2022-10-02T23:18:25.344Z,3.20
2022-10-02T23:21:02.753Z,2.93
2022-10-02T23:23:35.896Z,2.00
2022-10-02T23:26:09.920Z,1.67
2022-10-02T23:28:48.813Z,1.83
2022-10-02T23:31:23.125Z,1.73
2022-10-02T23:33:59.582Z,3.40
2022-10-02T23:36:34.247Z,2.07
2022-10-02T23:39:07.308Z,2.83
2022-10-02T23:41:47.131Z,3.80
2022-10-02T23:44:30.270Z,1.70
2022-10-02T23:47:11.142Z,1.77
2022-10-02T23:49:45.506Z,1.67
2022-10-02T23:52:39.092Z,1.30
2022-10-02T23:55:29.502Z,1.23
2022-10-02T23:58:21.484Z,1.63
